createdAt,value
2023-02-14T00:02:26.991Z,9.13
2023-02-14T00:04:57.746Z,10.65
2023-02-14T00:07:28.567Z,10.43
2023-02-14T00:09:59.115Z,9.00
2023-02-14T00:12:29.631Z,9.48
2023-02-14T00:15:18.198Z,9.53
2023-02-14T00:17:48.805Z,8.68
2023-02-14T00:20:19.710Z,8.70
2023-02-14T00:22:50.629Z,8.98
2023-02-14T00:25:21.100Z,10.00
2023-02-14T00:27:51.691Z,8.83
2023-02-14T00:30:22.224Z,8.80
2023-02-14T00:32:52.987Z,11.57
2023-02-14T00:35:24.559Z,9.45
2023-02-14T00:37:55.338Z,9.98
2023-02-14T00:40:25.969Z,9.78
2023-02-14T00:42:57.474Z,8.35
2023-02-14T00:45:28.037Z,9.05
2023-02-14T00:47:58.598Z,8.73
2023-02-14T00:50:29.193Z,9.85
2023-02-14T00:52:59.639Z,9.08
2023-02-14T00:55:30.230Z,8.85
2023-02-14T00:58:00.770Z,9.15
2023-02-14T01:00:31.419Z,9.05
2023-02-14T01:03:02.041Z,7.47
2023-02-14T01:05:32.712Z,8.28
2023-02-14T01:08:03.203Z,8.38
2023-02-14T01:10:34.013Z,8.10
2023-02-14T01:13:05.745Z,7.75
2023-02-14T01:15:41.881Z,7.50
2023-02-14T01:18:12.740Z,8.10
2023-02-14T01:20:43.337Z,11.73
2023-02-14T01:23:14.047Z,10.32
2023-02-14T01:25:44.657Z,8.95
2023-02-14T01:28:15.142Z,8.70
2023-02-14T01:30:45.695Z,8.60
2023-02-14T01:33:16.144Z,9.18
2023-02-14T01:35:46.637Z,8.63
2023-02-14T01:38:17.202Z,7.65
2023-02-14T01:40:47.703Z,8.08
2023-02-14T01:43:18.208Z,9.20
2023-02-14T01:45:50.035Z,9.75
2023-02-14T01:48:23.194Z,7.05
2023-02-14T01:50:55.761Z,8.40
2023-02-14T01:53:29.096Z,7.25
2023-02-14T01:56:02.498Z,8.55
2023-02-14T01:58:36.619Z,7.60
2023-02-14T02:01:07.343Z,8.23
2023-02-14T02:03:41.631Z,7.10
2023-02-14T02:06:18.342Z,7.77
2023-02-14T02:08:51.688Z,9.68
2023-02-14T02:11:23.415Z,5.63
2023-02-14T02:13:54.079Z,8.83
2023-02-14T02:16:33.481Z,7.40
2023-02-14T02:19:08.108Z,7.67
2023-02-14T02:22:04.418Z,9.18
2023-02-14T02:24:51.229Z,8.43
2023-02-14T02:27:30.565Z,8.78
2023-02-14T02:30:06.601Z,7.25
2023-02-14T02:32:56.840Z,8.33
2023-02-14T02:35:53.039Z,6.62
2023-02-14T02:41:18.128Z,7.72
2023-02-14T02:43:57.737Z,10.13
2023-02-14T02:46:49.399Z,6.97
2023-02-14T02:49:52.229Z,7.05
2023-02-14T02:52:52.791Z,7.95
2023-02-14T02:55:26.630Z,7.03
2023-02-14T02:57:58.216Z,9.95
2023-02-14T03:00:29.107Z,9.03
2023-02-14T03:03:18.615Z,8.48
2023-02-14T03:05:50.503Z,7.08
2023-02-14T03:08:21.059Z,8.75
2023-02-14T03:10:53.163Z,6.97
2023-02-14T03:13:26.938Z,7.80
2023-02-14T03:16:09.171Z,8.10
2023-02-14T03:19:06.659Z,8.13
2023-02-14T03:21:40.081Z,7.50
2023-02-14T03:24:31.163Z,10.15
2023-02-14T03:27:19.894Z,8.58
2023-02-14T03:29:59.128Z,6.55
2023-02-14T03:32:50.669Z,9.08
2023-02-14T03:35:33.111Z,8.08
2023-02-14T03:38:12.499Z,9.18
2023-02-14T03:41:05.825Z,8.00
2023-02-14T03:43:51.173Z,7.45
2023-02-14T03:46:27.383Z,9.20
2023-02-14T03:49:01.323Z,8.13
2023-02-14T03:51:34.722Z,8.03
2023-02-14T03:54:09.366Z,5.78
2023-02-14T03:56:48.668Z,8.40
2023-02-14T03:59:25.245Z,7.05
2023-02-14T04:02:13.684Z,7.55
2023-02-14T04:04:47.343Z,8.25
2023-02-14T04:07:20.843Z,6.35
2023-02-14T04:09:51.972Z,8.45
2023-02-14T04:12:36.889Z,8.53
2023-02-14T04:14:54.789Z,6.72
2023-02-14T04:17:43.353Z,8.25
2023-02-14T04:20:14.384Z,7.35
2023-02-14T04:22:46.518Z,7.83
2023-02-14T04:25:17.499Z,6.50
2023-02-14T04:27:48.000Z,7.03
2023-02-14T04:30:21.856Z,8.05
2023-02-14T04:32:52.347Z,7.87
2023-02-14T04:35:22.811Z,8.00
2023-02-14T04:37:53.400Z,8.38
2023-02-14T04:40:25.158Z,7.10
2023-02-14T04:42:55.692Z,8.05
2023-02-14T04:45:26.273Z,6.62
2023-02-14T04:47:56.756Z,7.72
2023-02-14T04:50:27.258Z,6.58
2023-02-14T04:52:57.738Z,8.33
2023-02-14T04:55:30.150Z,5.95
2023-02-14T04:58:00.792Z,6.85
2023-02-14T05:00:31.293Z,7.20
2023-02-14T05:03:01.919Z,7.53
2023-02-14T05:05:32.551Z,7.40
2023-02-14T05:08:03.030Z,6.87
2023-02-14T05:10:33.504Z,6.62
2023-02-14T05:13:05.166Z,7.85
2023-02-14T05:15:38.340Z,8.30
2023-02-14T05:18:07.956Z,10.05
2023-02-14T05:20:38.591Z,9.05
2023-02-14T05:23:10.781Z,10.03
2023-02-14T05:25:45.329Z,8.03
2023-02-14T05:28:15.787Z,8.00
2023-02-14T05:30:46.997Z,8.93
2023-02-14T05:33:17.656Z,8.53
2023-02-14T05:35:48.333Z,8.45
2023-02-14T05:38:19.391Z,7.47
2023-02-14T05:40:49.849Z,8.40
2023-02-14T05:43:20.375Z,9.08
2023-02-14T05:45:50.936Z,10.95
2023-02-14T05:48:21.734Z,11.40
2023-02-14T05:50:52.520Z,10.78
2023-02-14T05:53:23.143Z,11.08
2023-02-14T05:55:53.663Z,10.10
2023-02-14T05:58:24.286Z,8.33
2023-02-14T06:00:54.855Z,9.83
2023-02-14T06:03:25.426Z,10.58
2023-02-14T06:05:56.099Z,9.13
2023-02-14T06:08:26.613Z,9.30
2023-02-14T06:10:57.443Z,8.88
2023-02-14T06:13:29.315Z,9.40
2023-02-14T06:15:59.866Z,8.45
2023-02-14T06:18:30.360Z,9.68
2023-02-14T06:21:01.221Z,13.00
2023-02-14T06:23:32.354Z,9.93
2023-02-14T06:26:03.924Z,12.33
2023-02-14T06:28:34.604Z,12.40
2023-02-14T06:31:05.670Z,11.83
2023-02-14T06:33:36.534Z,10.70
2023-02-14T06:36:07.602Z,10.65
2023-02-14T06:38:38.129Z,10.50
2023-02-14T06:41:10.715Z,13.85
2023-02-14T06:43:41.373Z,10.80
2023-02-14T06:46:12.573Z,9.40
2023-02-14T06:48:43.202Z,10.68
2023-02-14T06:51:15.437Z,9.75
2023-02-14T06:53:45.907Z,9.58
2023-02-14T06:56:16.418Z,8.78
2023-02-14T06:58:46.917Z,9.50
2023-02-14T07:01:17.392Z,7.22
2023-02-14T07:03:49.175Z,9.50
2023-02-14T07:06:19.717Z,10.15
2023-02-14T07:08:50.298Z,9.05
2023-02-14T07:11:20.759Z,11.83
2023-02-14T07:13:51.359Z,11.25
2023-02-14T07:16:21.981Z,13.18
2023-02-14T07:18:53.156Z,11.78
2023-02-14T07:21:24.099Z,14.90
2023-02-14T07:23:54.712Z,12.82
2023-02-14T07:26:25.396Z,10.50
2023-02-14T07:28:55.985Z,10.30
2023-02-14T07:31:26.709Z,10.05
2023-02-14T07:34:01.493Z,10.88
2023-02-14T07:36:32.023Z,10.38
2023-02-14T07:39:02.715Z,11.48
2023-02-14T07:41:33.353Z,9.58
2023-02-14T07:44:03.988Z,9.93
2023-02-14T07:46:34.438Z,8.78
2023-02-14T07:49:05.537Z,9.45
2023-02-14T07:51:36.115Z,9.60
2023-02-14T07:54:08.163Z,9.80
2023-02-14T07:56:38.717Z,10.32
2023-02-14T07:59:09.503Z,11.88
2023-02-14T08:01:40.276Z,13.13
2023-02-14T08:04:12.766Z,15.13
2023-02-14T08:06:44.244Z,11.97
2023-02-14T08:09:16.374Z,10.32
2023-02-14T08:12:04.724Z,8.90
2023-02-14T08:14:36.136Z,9.98
2023-02-14T08:17:10.963Z,10.32
2023-02-14T08:19:42.428Z,11.95
2023-02-14T08:22:13.419Z,9.05
2023-02-14T08:24:45.233Z,10.30
2023-02-14T08:27:15.807Z,11.05
2023-02-14T08:29:46.395Z,9.13
2023-02-14T08:32:18.548Z,9.70
2023-02-14T08:34:50.320Z,12.90
2023-02-14T08:37:21.086Z,9.38
2023-02-14T08:39:51.573Z,9.20
2023-02-14T08:42:23.233Z,9.48
2023-02-14T08:44:54.906Z,9.80
2023-02-14T08:47:26.652Z,11.20
2023-02-14T08:49:57.243Z,12.07
2023-02-14T08:52:27.788Z,10.80
2023-02-14T08:54:58.385Z,10.10
2023-02-14T08:57:29.226Z,10.13
2023-02-14T09:00:00.434Z,12.73
2023-02-14T09:02:31.351Z,11.20
2023-02-14T09:05:01.946Z,10.20
2023-02-14T09:07:32.606Z,9.88
2023-02-14T09:10:03.293Z,8.25
2023-02-14T09:12:33.805Z,11.30
2023-02-14T09:15:05.399Z,11.40
2023-02-14T09:17:37.465Z,11.50
2023-02-14T09:20:12.420Z,9.20
2023-02-14T09:22:44.104Z,13.13
2023-02-14T09:25:15.145Z,15.32
2023-02-14T09:27:45.820Z,14.28
2023-02-14T09:30:17.627Z,10.93
2023-02-14T09:32:48.261Z,10.48
2023-02-14T09:35:25.379Z,10.90
2023-02-14T09:38:02.715Z,11.22
2023-02-14T09:40:34.666Z,10.48
2023-02-14T09:43:25.409Z,12.13
2023-02-14T09:45:59.098Z,12.68
2023-02-14T09:48:39.276Z,12.93
2023-02-14T09:51:17.062Z,12.23
2023-02-14T09:53:53.298Z,11.25
2023-02-14T09:56:31.050Z,16.00
2023-02-14T09:59:14.326Z,11.68
2023-02-14T10:01:47.894Z,14.10
2023-02-14T10:04:39.885Z,12.35
2023-02-14T10:07:19.713Z,12.20
2023-02-14T10:10:08.780Z,12.60
2023-02-14T10:13:03.372Z,9.93
2023-02-14T10:15:43.823Z,12.28
2023-02-14T10:18:17.402Z,15.10
2023-02-14T10:20:51.236Z,16.93
2023-02-14T10:23:25.573Z,17.12
2023-02-14T10:26:04.906Z,14.00
2023-02-14T10:28:47.725Z,11.70
2023-02-14T10:31:30.414Z,14.10
2023-02-14T10:34:18.822Z,12.15
2023-02-14T10:36:59.561Z,11.60
2023-02-14T10:39:48.461Z,10.03
2023-02-14T10:42:34.142Z,11.12
2023-02-14T10:45:30.376Z,15.00
2023-02-14T10:51:01.470Z,13.08
2023-02-14T10:53:51.642Z,12.23
2023-02-14T10:56:30.712Z,16.73
2023-02-14T10:59:04.176Z,15.03
2023-02-14T11:01:36.198Z,16.10
2023-02-14T11:04:09.837Z,14.85
2023-02-14T11:06:40.423Z,15.10
2023-02-14T11:09:12.618Z,14.70
2023-02-14T11:11:57.000Z,14.35
2023-02-14T11:14:30.455Z,13.90
2023-02-14T11:17:03.267Z,12.82
2023-02-14T11:19:37.482Z,11.95
2023-02-14T11:22:09.717Z,14.10
2023-02-14T11:24:46.152Z,13.30
2023-02-14T11:27:19.276Z,15.30
2023-02-14T11:29:53.119Z,13.00
2023-02-14T11:32:29.346Z,11.83
2023-02-14T11:35:09.218Z,13.78
2023-02-14T11:37:48.782Z,12.78
2023-02-14T11:40:34.886Z,15.00
2023-02-14T11:43:19.152Z,16.87
2023-02-14T11:45:52.394Z,14.83
2023-02-14T11:48:38.174Z,17.77
2023-02-14T11:51:06.314Z,18.02
2023-02-14T11:53:49.524Z,17.75
2023-02-14T11:56:22.206Z,16.93
2023-02-14T11:58:59.059Z,20.45
2023-02-14T12:01:40.173Z,22.40
2023-02-14T12:04:20.708Z,16.00
2023-02-14T12:06:51.556Z,14.05
2023-02-14T12:09:30.493Z,13.25
2023-02-14T12:12:06.655Z,11.78
2023-02-14T12:14:39.131Z,12.10
2023-02-14T12:17:13.418Z,12.35
2023-02-14T12:20:02.157Z,12.50
2023-02-14T12:22:35.721Z,11.30
2023-02-14T12:25:28.253Z,10.98
2023-02-14T12:28:08.634Z,14.18
2023-02-14T12:30:39.618Z,10.13
2023-02-14T12:33:19.537Z,12.05
2023-02-14T12:36:08.249Z,15.65
2023-02-14T12:38:53.765Z,15.28
2023-02-14T12:42:03.117Z,11.30
2023-02-14T12:44:48.338Z,10.60
2023-02-14T12:47:30.944Z,9.80
2023-02-14T12:50:21.121Z,12.63
2023-02-14T12:53:12.210Z,12.70
2023-02-14T12:55:51.518Z,11.35
2023-02-14T12:58:32.452Z,10.63
2023-02-14T13:01:28.375Z,11.93
2023-02-14T13:04:20.946Z,12.55
2023-02-14T13:07:00.224Z,9.70
2023-02-14T13:09:50.600Z,10.00
2023-02-14T13:12:39.348Z,11.93
2023-02-14T13:15:29.660Z,9.40
2023-02-14T13:18:03.284Z,8.55
2023-02-14T13:20:42.818Z,9.35
2023-02-14T13:23:25.250Z,11.80
2023-02-14T13:26:15.500Z,13.62
2023-02-14T13:29:13.369Z,8.30
2023-02-14T13:31:44.299Z,8.35
2023-02-14T13:34:37.097Z,15.83
2023-02-14T13:37:10.898Z,16.90
2023-02-14T13:39:47.248Z,14.83
2023-02-14T13:42:51.044Z,14.50
2023-02-14T13:45:37.988Z,12.70
2023-02-14T13:48:18.621Z,9.83
2023-02-14T13:51:01.333Z,10.48
2023-02-14T13:53:34.814Z,6.90
2023-02-14T13:56:08.256Z,8.88
2023-02-14T13:58:40.389Z,9.10
2023-02-14T14:01:37.206Z,11.28
2023-02-14T14:04:32.115Z,9.50
2023-02-14T14:07:08.921Z,7.75
2023-02-14T14:09:48.203Z,8.73
2023-02-14T14:12:31.965Z,11.48
2023-02-14T14:15:17.370Z,13.95
2023-02-14T14:17:50.740Z,8.95
2023-02-14T14:20:24.228Z,10.85
2023-02-14T14:23:00.663Z,13.55
2023-02-14T14:25:43.576Z,12.43
2023-02-14T14:28:22.899Z,11.38
2023-02-14T14:30:53.997Z,9.70
2023-02-14T14:33:33.879Z,11.53
2023-02-14T14:36:10.371Z,8.15
2023-02-14T14:38:54.702Z,8.80
2023-02-14T14:41:32.163Z,10.30
2023-02-14T14:44:03.290Z,9.55
2023-02-14T14:46:34.597Z,9.73
2023-02-14T14:49:06.047Z,10.65
2023-02-14T14:51:38.701Z,9.40
2023-02-14T14:54:19.385Z,9.98
2023-02-14T14:57:02.155Z,12.55
2023-02-14T14:59:36.141Z,13.80
2023-02-14T15:02:26.543Z,12.75
2023-02-14T15:04:57.490Z,10.38
2023-02-14T15:07:33.454Z,9.63
2023-02-14T15:10:04.474Z,10.18
2023-02-14T15:12:54.496Z,11.20
2023-02-14T15:15:26.322Z,11.15
2023-02-14T15:17:57.222Z,11.10
2023-02-14T15:20:28.003Z,10.03
2023-02-14T15:22:58.718Z,9.38
2023-02-14T15:25:32.196Z,11.63
2023-02-14T15:28:03.713Z,17.00
2023-02-14T15:30:38.303Z,17.20
2023-02-14T15:33:10.788Z,18.70
2023-02-14T15:35:44.096Z,18.77
2023-02-14T15:38:15.994Z,24.65
2023-02-14T15:40:47.260Z,23.50
2023-02-14T15:43:32.719Z,24.92
2023-02-14T15:46:23.205Z,22.70
2023-02-14T15:48:55.956Z,22.85
2023-02-14T15:51:32.529Z,21.50
2023-02-14T15:54:09.450Z,20.25
2023-02-14T15:56:46.159Z,23.65
2023-02-14T15:59:26.719Z,17.32
2023-02-14T16:02:00.170Z,29.42
2023-02-14T16:04:36.663Z,37.08
2023-02-14T16:07:15.949Z,36.50
2023-02-14T16:09:46.590Z,35.35
2023-02-14T16:12:32.092Z,25.72
2023-02-14T16:15:21.769Z,24.70
2023-02-14T16:17:53.251Z,22.13
2023-02-14T16:20:32.808Z,50.48
2023-02-14T16:23:21.499Z,55.88
2023-02-14T16:25:53.453Z,42.55
2023-02-14T16:28:24.443Z,38.53
2023-02-14T16:30:57.661Z,38.92
2023-02-14T16:33:31.481Z,30.27
2023-02-14T16:36:09.465Z,27.20
2023-02-14T16:38:46.388Z,21.02
2023-02-14T16:41:22.612Z,20.95
2023-02-14T16:43:53.463Z,22.75
2023-02-14T16:46:35.467Z,28.45
2023-02-14T16:49:06.262Z,33.45
2023-02-14T16:51:37.954Z,36.60
2023-02-14T16:54:11.092Z,33.83
2023-02-14T16:56:51.689Z,32.90
2023-02-14T16:59:22.566Z,30.52
2023-02-14T17:01:53.993Z,30.82
2023-02-14T17:04:24.629Z,29.00
2023-02-14T17:06:57.413Z,27.52
2023-02-14T17:09:33.132Z,27.17
2023-02-14T17:12:07.921Z,29.02
2023-02-14T17:14:39.999Z,25.35
2023-02-14T17:17:12.302Z,25.68
2023-02-14T17:19:42.837Z,34.27
2023-02-14T17:22:15.204Z,53.55
2023-02-14T17:24:46.980Z,51.53
2023-02-14T17:27:18.840Z,47.27
2023-02-14T17:29:51.005Z,44.50
2023-02-14T17:32:21.760Z,49.20
2023-02-14T17:34:52.625Z,48.42
2023-02-14T17:37:23.303Z,46.63
2023-02-14T17:39:54.714Z,49.70
2023-02-14T17:42:25.574Z,49.50
2023-02-14T17:44:56.323Z,46.58
2023-02-14T17:47:26.971Z,47.45
2023-02-14T17:49:58.405Z,51.70
2023-02-14T17:52:29.945Z,49.40
2023-02-14T17:55:00.517Z,53.85
2023-02-14T17:57:31.337Z,45.83
2023-02-14T18:00:02.303Z,51.90
2023-02-14T18:02:33.237Z,51.37
2023-02-14T18:05:04.101Z,55.98
2023-02-14T18:07:35.756Z,57.80
2023-02-14T18:10:08.298Z,63.63
2023-02-14T18:12:38.861Z,60.78
2023-02-14T18:15:10.302Z,68.33
2023-02-14T18:17:40.833Z,64.67
2023-02-14T18:20:12.216Z,71.05
2023-02-14T18:22:42.769Z,69.82
2023-02-14T18:25:13.454Z,72.15
2023-02-14T18:27:43.994Z,77.20
2023-02-14T18:30:15.490Z,79.55
2023-02-14T18:32:46.074Z,83.92
2023-02-14T18:35:18.271Z,79.72
2023-02-14T18:37:49.969Z,72.67
2023-02-14T18:40:20.937Z,70.80
2023-02-14T18:42:51.549Z,76.77
2023-02-14T18:45:22.727Z,108.85
2023-02-14T18:47:53.331Z,109.12
2023-02-14T18:50:23.908Z,96.40
2023-02-14T18:52:54.509Z,89.17
2023-02-14T18:55:25.668Z,76.82
2023-02-14T18:57:57.688Z,76.85
2023-02-14T19:00:29.817Z,76.12
2023-02-14T19:03:02.142Z,76.35
2023-02-14T19:05:33.862Z,84.97
2023-02-14T19:08:06.631Z,83.70
2023-02-14T19:10:38.970Z,86.47
2023-02-14T19:13:09.573Z,81.57
2023-02-14T19:15:40.095Z,94.10
2023-02-14T19:18:10.655Z,82.75
2023-02-14T19:20:41.234Z,82.12
2023-02-14T19:23:12.987Z,82.85
2023-02-14T19:25:44.800Z,80.55
2023-02-14T19:28:15.837Z,79.95
2023-02-14T19:30:46.506Z,84.22
2023-02-14T19:33:18.424Z,77.90
2023-02-14T19:35:50.362Z,74.35
2023-02-14T19:38:20.939Z,68.52
2023-02-14T19:40:51.506Z,62.78
2023-02-14T19:43:22.114Z,58.50
2023-02-14T19:45:53.238Z,56.83
2023-02-14T19:48:24.389Z,53.85
2023-02-14T19:50:55.009Z,50.10
2023-02-14T19:53:25.696Z,38.38
2023-02-14T19:55:56.575Z,35.35
2023-02-14T19:58:27.748Z,32.28
2023-02-14T20:01:01.508Z,30.37
2023-02-14T20:03:34.217Z,26.95
2023-02-14T20:06:06.217Z,25.40
2023-02-14T20:08:36.815Z,24.50
2023-02-14T20:11:07.987Z,26.35
2023-02-14T20:13:38.571Z,23.98
2023-02-14T20:16:11.784Z,25.70
2023-02-14T20:18:42.412Z,24.27
2023-02-14T20:21:18.366Z,22.80
2023-02-14T20:23:48.964Z,21.60
2023-02-14T20:26:21.151Z,21.05
2023-02-14T20:28:53.321Z,21.27
2023-02-14T20:31:24.074Z,21.70
2023-02-14T20:33:56.465Z,19.40
2023-02-14T20:36:27.447Z,22.35
2023-02-14T20:39:00.856Z,20.32
2023-02-14T20:41:34.088Z,19.20
2023-02-14T20:44:10.988Z,20.88
2023-02-14T20:46:41.542Z,19.62
2023-02-14T20:49:12.525Z,20.65
2023-02-14T20:51:46.181Z,20.90
2023-02-14T20:54:17.134Z,20.48
2023-02-14T20:56:50.915Z,19.10
2023-02-14T20:59:29.517Z,21.75
2023-02-14T21:02:00.698Z,19.90
2023-02-14T21:04:33.875Z,20.57
2023-02-14T21:07:07.891Z,21.57
2023-02-14T21:09:39.188Z,20.32
2023-02-14T21:12:11.367Z,18.35
2023-02-14T21:14:44.758Z,20.72
2023-02-14T21:17:20.040Z,22.82
2023-02-14T21:19:52.231Z,22.40
2023-02-14T21:22:24.372Z,20.20
2023-02-14T21:25:00.720Z,20.90
2023-02-14T21:27:34.936Z,18.95
2023-02-14T21:30:10.061Z,22.25
2023-02-14T21:32:43.721Z,21.90
2023-02-14T21:35:15.837Z,22.93
2023-02-14T21:37:48.366Z,18.87
2023-02-14T21:40:23.642Z,19.98
2023-02-14T21:43:00.388Z,22.07
2023-02-14T21:45:52.783Z,20.25
2023-02-14T21:48:43.058Z,21.07
2023-02-14T21:51:16.824Z,22.00
2023-02-14T21:53:50.927Z,23.63
2023-02-14T21:56:28.020Z,20.17
2023-02-14T21:59:02.132Z,18.77
2023-02-14T22:01:40.235Z,18.60
2023-02-14T22:04:13.352Z,20.02
2023-02-14T22:06:45.769Z,14.03
2023-02-14T22:09:20.433Z,19.55
2023-02-14T22:11:51.375Z,20.57
2023-02-14T22:14:24.933Z,21.80
2023-02-14T22:16:58.272Z,19.87
2023-02-14T22:19:32.134Z,20.40
2023-02-14T22:22:05.149Z,20.82
2023-02-14T22:24:37.450Z,20.43
2023-02-14T22:27:10.993Z,22.98
2023-02-14T22:29:44.112Z,21.75
2023-02-14T22:32:18.614Z,22.10
2023-02-14T22:34:54.100Z,23.50
2023-02-14T22:39:58.846Z,24.65
2023-02-14T22:42:30.881Z,21.48
2023-02-14T22:45:06.829Z,21.42
2023-02-14T22:47:40.229Z,22.13
2023-02-14T22:50:15.225Z,21.73
2023-02-14T22:52:46.396Z,21.93
2023-02-14T22:55:19.918Z,26.45
2023-02-14T22:57:52.178Z,21.45
2023-02-14T23:00:23.825Z,21.10
2023-02-14T23:02:56.873Z,21.07
2023-02-14T23:05:28.809Z,21.27
2023-02-14T23:08:03.352Z,22.87
2023-02-14T23:10:36.187Z,20.52
2023-02-14T23:13:27.505Z,22.13
2023-02-14T23:16:16.832Z,21.35
2023-02-14T23:19:11.632Z,22.32
2023-02-14T23:21:59.960Z,20.30
2023-02-14T23:24:32.987Z,24.20
2023-02-14T23:27:06.887Z,23.75
2023-02-14T23:29:39.621Z,26.73
2023-02-14T23:32:17.836Z,30.15
2023-02-14T23:34:52.887Z,30.45
2023-02-14T23:37:27.419Z,28.00
2023-02-14T23:40:02.353Z,24.10
2023-02-14T23:42:34.987Z,26.20
2023-02-14T23:45:27.038Z,26.33
2023-02-14T23:48:00.939Z,27.62
2023-02-14T23:50:33.466Z,30.75
2023-02-14T23:53:07.690Z,29.67
2023-02-14T23:55:40.659Z,29.10
2023-02-14T23:58:12.939Z,34.67
